createdAt,value
2019-03-12T00:01:21.262Z,94161.99
2019-03-12T00:03:54.135Z,94167.45
2019-03-12T00:06:26.924Z,94169.00
2019-03-12T00:09:00.337Z,94166.03
2019-03-12T00:11:33.114Z,94163.80
2019-03-12T00:14:06.063Z,94156.11
2019-03-12T00:16:38.963Z,94162.87
2019-03-12T00:19:12.143Z,94157.61
2019-03-12T00:21:44.974Z,94160.61
2019-03-12T00:24:17.714Z,94164.25
2019-03-12T00:26:50.486Z,94168.91
2019-03-12T00:29:23.218Z,94171.59
2019-03-12T00:31:56.040Z,94158.55
2019-03-12T00:34:29.022Z,94152.32
2019-03-12T00:37:01.690Z,94139.77
2019-03-12T00:39:34.662Z,94140.37
2019-03-12T00:42:07.388Z,94140.41
2019-03-12T00:44:41.229Z,94156.78
2019-03-12T00:47:14.397Z,94153.39
2019-03-12T00:49:47.155Z,94148.44
2019-03-12T00:52:19.952Z,94150.25
2019-03-12T00:54:52.755Z,94152.18
2019-03-12T00:57:25.471Z,94149.91
2019-03-12T00:59:58.272Z,94155.64
2019-03-12T01:02:31.083Z,94157.80
2019-03-12T01:05:04.062Z,94156.92
2019-03-12T01:07:36.753Z,94151.78
2019-03-12T01:10:11.942Z,94151.48
2019-03-12T01:12:44.904Z,94147.80
2019-03-12T01:15:17.846Z,94151.67
2019-03-12T01:17:50.700Z,94149.97
2019-03-12T01:20:23.930Z,94154.88
2019-03-12T01:22:56.734Z,94154.83
2019-03-12T01:25:29.598Z,94160.36
2019-03-12T01:28:02.716Z,94164.91
2019-03-12T01:30:35.542Z,94169.56
2019-03-12T01:33:08.307Z,94170.66
2019-03-12T01:35:41.061Z,94173.86
2019-03-12T01:38:15.699Z,94175.52
2019-03-12T01:40:48.465Z,94175.67
2019-03-12T01:43:21.314Z,94172.33
2019-03-12T01:45:54.031Z,94180.89
2019-03-12T01:48:26.960Z,94186.32
2019-03-12T01:50:59.842Z,94199.33
2019-03-12T01:53:32.588Z,94197.06
2019-03-12T01:56:05.288Z,94192.59
2019-03-12T01:58:38.348Z,94207.41
2019-03-12T02:01:10.968Z,94201.98
2019-03-12T02:03:45.579Z,94206.17
2019-03-12T02:06:18.319Z,94207.44
2019-03-12T02:08:51.059Z,94213.52
2019-03-12T02:11:24.075Z,94216.22
2019-03-12T02:13:56.842Z,94216.95
2019-03-12T02:16:29.464Z,94211.19
2019-03-12T02:19:02.311Z,94206.33
2019-03-12T02:21:36.640Z,94206.45
2019-03-12T02:24:09.544Z,94198.98
2019-03-12T02:26:42.358Z,94196.20
2019-03-12T02:29:15.188Z,94199.86
2019-03-12T02:31:47.958Z,94201.11
2019-03-12T02:34:20.721Z,94201.11
2019-03-12T02:36:53.609Z,94196.55
2019-03-12T02:39:26.429Z,94194.84
2019-03-12T02:41:59.598Z,94193.76
2019-03-12T02:44:32.219Z,94183.88
2019-03-12T02:47:05.204Z,94179.26
2019-03-12T02:49:37.784Z,94183.54
2019-03-12T02:52:10.771Z,94178.88
2019-03-12T02:54:43.477Z,94182.21
2019-03-12T02:57:16.286Z,94184.72
2019-03-12T02:59:50.217Z,94187.42
2019-03-12T03:02:22.878Z,94193.41
2019-03-12T03:04:55.422Z,94192.25
2019-03-12T03:08:06.969Z,94202.30
2019-03-12T03:10:41.200Z,94208.41
2019-03-12T03:13:14.095Z,94191.73
2019-03-12T03:15:47.310Z,94202.91
2019-03-12T03:18:20.025Z,94202.10
2019-03-12T03:20:52.841Z,94197.16
2019-03-12T03:23:25.525Z,94187.12
2019-03-12T03:25:58.344Z,94190.31
2019-03-12T03:28:31.240Z,94182.15
2019-03-12T03:31:04.362Z,94182.48
2019-03-12T03:33:36.914Z,94189.59
2019-03-12T03:36:09.599Z,94200.86
2019-03-12T03:38:42.455Z,94203.25
2019-03-12T03:41:16.525Z,94204.35
2019-03-12T03:43:49.310Z,94197.67
2019-03-12T03:46:22.100Z,94206.71
2019-03-12T03:48:56.187Z,94210.02
2019-03-12T03:51:29.491Z,94213.27
2019-03-12T03:54:03.242Z,94224.09
2019-03-12T03:56:36.006Z,94232.52
2019-03-12T03:59:08.935Z,94232.63
2019-03-12T04:01:41.949Z,94234.86
2019-03-12T04:04:14.992Z,94232.09
2019-03-12T04:06:48.369Z,94238.31
2019-03-12T04:09:22.602Z,94231.27
2019-03-12T04:11:55.500Z,94227.85
2019-03-12T04:14:28.389Z,94240.73
2019-03-12T04:17:01.241Z,94244.91
2019-03-12T04:19:35.323Z,94247.83
2019-03-12T04:22:10.963Z,94245.47
2019-03-12T04:24:44.033Z,94253.45
2019-03-12T04:27:17.069Z,94253.30
2019-03-12T04:30:00.972Z,94255.36
2019-03-12T04:32:34.192Z,94255.16
2019-03-12T04:35:08.536Z,94264.27
2019-03-12T04:37:41.291Z,94273.34
2019-03-12T04:40:14.561Z,94275.73
2019-03-12T04:42:47.605Z,94279.58
2019-03-12T04:45:20.710Z,94282.30
2019-03-12T04:47:53.495Z,94288.20
2019-03-12T04:50:26.506Z,94296.80
2019-03-12T04:52:59.481Z,94304.53
2019-03-12T04:55:32.469Z,94317.68
2019-03-12T04:58:05.417Z,94320.86
2019-03-12T05:00:38.600Z,94322.52
2019-03-12T05:03:11.043Z,94323.78
2019-03-12T05:05:43.912Z,94329.41
2019-03-12T05:08:18.504Z,94318.06
2019-03-12T05:10:52.666Z,94329.65
2019-03-12T05:13:25.611Z,94337.52
2019-03-12T05:15:58.408Z,94346.87
2019-03-12T05:18:31.858Z,94346.74
2019-03-12T05:21:04.669Z,94348.23
2019-03-12T05:23:37.472Z,94357.54
2019-03-12T05:26:10.737Z,94355.66
2019-03-12T05:28:48.048Z,94361.20
2019-03-12T05:31:20.783Z,94361.16
2019-03-12T05:33:53.753Z,94371.14
2019-03-12T05:36:26.939Z,94368.53
2019-03-12T05:38:59.759Z,94371.58
2019-03-12T05:41:32.336Z,94377.45
2019-03-12T05:44:05.080Z,94378.81
2019-03-12T05:46:38.022Z,94376.52
2019-03-12T05:49:10.996Z,94376.33
2019-03-12T05:51:44.126Z,94381.39
2019-03-12T05:54:17.293Z,94380.55
2019-03-12T05:56:49.667Z,94393.17
2019-03-12T05:59:22.714Z,94397.99
2019-03-12T06:01:55.445Z,94397.25
2019-03-12T06:04:28.182Z,94408.89
2019-03-12T06:07:00.999Z,94408.57
2019-03-12T06:09:34.107Z,94407.91
2019-03-12T06:12:06.783Z,94413.93
2019-03-12T06:14:39.630Z,94420.16
2019-03-12T06:17:12.698Z,94417.94
2019-03-12T06:19:45.598Z,94423.19
2019-03-12T06:22:18.368Z,94429.06
2019-03-12T06:24:51.322Z,94429.11
2019-03-12T06:27:24.163Z,94431.19
2019-03-12T06:29:56.979Z,94435.69
2019-03-12T06:32:54.342Z,94430.98
2019-03-12T06:36:01.599Z,94435.10
2019-03-12T06:38:45.338Z,94439.38
2019-03-12T06:41:33.156Z,94438.79
2019-03-12T06:44:23.556Z,94441.06
2019-03-12T06:47:15.267Z,94436.27
2019-03-12T06:49:54.919Z,94440.80
2019-03-12T06:52:41.615Z,94437.41
2019-03-12T06:55:36.222Z,94446.25
2019-03-12T06:58:26.793Z,94452.79
2019-03-12T07:01:12.581Z,94455.17
2019-03-12T07:04:17.895Z,94449.73
2019-03-12T07:07:17.077Z,94440.34
2019-03-12T07:10:07.685Z,94449.06
2019-03-12T07:13:09.113Z,94453.64
2019-03-12T07:15:57.359Z,94444.39
2019-03-12T07:18:46.035Z,94435.66
2019-03-12T07:21:40.482Z,94424.34
2019-03-12T07:24:23.697Z,94434.67
2019-03-12T07:27:05.797Z,94434.13
2019-03-12T07:29:56.627Z,94431.89
2019-03-12T07:32:56.142Z,94433.69
2019-03-12T07:35:42.114Z,94433.14
2019-03-12T07:38:33.315Z,94432.84
2019-03-12T07:41:28.556Z,94435.73
2019-03-12T07:44:04.468Z,94432.30
2019-03-12T07:46:50.042Z,94438.92
2019-03-12T07:52:37.995Z,94454.95
2019-03-12T07:55:48.507Z,94456.40
2019-03-12T07:58:38.496Z,94460.73
2019-03-12T08:01:37.243Z,94458.00
2019-03-12T08:04:25.427Z,94445.67
2019-03-12T08:07:24.003Z,94445.45
2019-03-12T08:10:18.432Z,94465.33
2019-03-12T08:13:09.143Z,94468.63
2019-03-12T08:16:04.552Z,94473.17
2019-03-12T08:18:51.337Z,94476.57
2019-03-12T08:21:43.472Z,94478.17
2019-03-12T08:24:33.846Z,94471.48
2019-03-12T08:27:37.964Z,94475.25
2019-03-12T08:30:37.949Z,94473.84
2019-03-12T08:33:50.709Z,94469.79
2019-03-12T08:36:35.636Z,94471.55
2019-03-12T08:39:33.787Z,94473.80
2019-03-12T08:42:25.390Z,94473.11
2019-03-12T08:45:16.699Z,94465.23
2019-03-12T08:48:09.053Z,94460.76
2019-03-12T08:51:06.781Z,94463.12
2019-03-12T08:53:58.796Z,94465.33
2019-03-12T08:56:42.850Z,94468.34
2019-03-12T08:59:47.356Z,94467.80
2019-03-12T09:02:39.481Z,94464.98
2019-03-12T09:05:25.056Z,94476.10
2019-03-12T09:08:06.234Z,94481.79
2019-03-12T09:11:08.315Z,94486.96
2019-03-12T09:13:59.821Z,94486.12
2019-03-12T09:16:54.261Z,94492.69
2019-03-12T09:19:45.138Z,94493.27
2019-03-12T09:22:39.792Z,94480.23
2019-03-12T09:25:41.705Z,94477.80
2019-03-12T09:28:33.317Z,94473.72
2019-03-12T09:31:34.284Z,94470.78
2019-03-12T09:34:26.176Z,94473.13
2019-03-12T09:37:22.371Z,94468.28
2019-03-12T09:40:14.457Z,94480.05
2019-03-12T09:43:09.023Z,94495.52
2019-03-12T09:45:59.680Z,94495.17
2019-03-12T09:48:38.763Z,94502.81
2019-03-12T09:51:19.394Z,94496.91
2019-03-12T09:54:20.175Z,94493.89
2019-03-12T09:57:17.749Z,94491.60
2019-03-12T10:00:16.017Z,94490.20
2019-03-12T10:02:55.189Z,94504.39
2019-03-12T10:05:57.403Z,94507.56
2019-03-12T10:08:41.064Z,94516.94
2019-03-12T10:11:31.178Z,94518.06
2019-03-12T10:14:12.100Z,94526.95
2019-03-12T10:17:06.882Z,94531.66
2019-03-12T10:20:01.802Z,94528.30
2019-03-12T10:22:42.747Z,94531.66
2019-03-12T10:25:49.698Z,94525.05
2019-03-12T10:28:40.947Z,94521.09
2019-03-12T10:31:31.618Z,94525.03
2019-03-12T10:34:30.263Z,94519.04
2019-03-12T10:37:12.692Z,94531.03
2019-03-12T10:40:33.240Z,94532.38
2019-03-12T10:43:22.212Z,94528.52
2019-03-12T10:46:23.117Z,94531.80
2019-03-12T10:48:56.223Z,94535.46
2019-03-12T10:51:29.132Z,94530.72
2019-03-12T10:54:01.988Z,94533.48
2019-03-12T10:56:34.871Z,94538.24
2019-03-12T10:59:08.081Z,94541.04
2019-03-12T11:01:41.174Z,94540.09
2019-03-12T11:04:14.235Z,94522.66
2019-03-12T11:06:47.341Z,94529.58
2019-03-12T11:09:20.803Z,94538.75
2019-03-12T11:11:53.855Z,94534.86
2019-03-12T11:14:27.036Z,94531.63
2019-03-12T11:17:00.130Z,94526.75
2019-03-12T11:19:33.402Z,94523.84
2019-03-12T11:22:06.387Z,94521.96
2019-03-12T11:24:39.731Z,94524.92
2019-03-12T11:27:13.066Z,94521.98
2019-03-12T11:29:46.759Z,94520.61
2019-03-12T11:32:20.208Z,94514.89
2019-03-12T11:34:54.101Z,94508.21
2019-03-12T11:37:27.591Z,94493.44
2019-03-12T11:40:01.909Z,94487.04
2019-03-12T11:42:35.034Z,94484.22
2019-03-12T11:45:15.140Z,94482.16
2019-03-12T11:47:43.355Z,94477.95
2019-03-12T11:50:21.832Z,94468.42
2019-03-12T11:52:58.174Z,94464.75
2019-03-12T11:55:29.929Z,94465.30
2019-03-12T11:58:03.137Z,94471.25
2019-03-12T12:00:44.287Z,94471.44
2019-03-12T12:03:17.160Z,94481.96
2019-03-12T12:05:50.170Z,94482.95
2019-03-12T12:08:24.012Z,94477.90
2019-03-12T12:10:57.106Z,94493.13
2019-03-12T12:13:30.073Z,94502.72
2019-03-12T12:16:04.452Z,94502.45
2019-03-12T12:18:37.444Z,94493.28
2019-03-12T12:21:11.258Z,94497.70
2019-03-12T12:23:44.413Z,94502.61
2019-03-12T12:26:17.479Z,94499.73
2019-03-12T12:28:50.423Z,94498.60
2019-03-12T12:31:23.507Z,94497.00
2019-03-12T12:33:56.700Z,94499.50
2019-03-12T12:36:29.540Z,94500.84
2019-03-12T12:39:02.629Z,94499.88
2019-03-12T12:41:35.674Z,94500.96
2019-03-12T12:44:08.855Z,94496.19
2019-03-12T12:46:42.059Z,94501.85
2019-03-12T12:49:15.274Z,94502.12
2019-03-12T12:51:48.289Z,94513.84
2019-03-12T12:54:21.377Z,94516.59
2019-03-12T12:56:54.338Z,94520.44
2019-03-12T12:59:27.610Z,94512.78
2019-03-12T13:02:00.771Z,94509.05
2019-03-12T13:04:34.147Z,94512.13
2019-03-12T13:07:07.276Z,94518.05
2019-03-12T13:09:43.946Z,94514.03
2019-03-12T13:12:21.121Z,94509.82
2019-03-12T13:14:54.245Z,94518.59
2019-03-12T13:17:27.259Z,94512.91
2019-03-12T13:20:00.400Z,94515.30
2019-03-12T13:22:33.267Z,94506.25
2019-03-12T13:25:06.558Z,94510.64
2019-03-12T13:27:42.502Z,94512.67
2019-03-12T13:30:17.296Z,94516.95
2019-03-12T13:32:50.232Z,94513.63
2019-03-12T13:35:23.435Z,94513.64
2019-03-12T13:37:56.267Z,94515.38
2019-03-12T13:40:29.247Z,94522.34
2019-03-12T13:43:02.438Z,94514.86
2019-03-12T13:45:35.595Z,94512.86
2019-03-12T13:48:08.574Z,94510.83
2019-03-12T13:50:41.417Z,94503.89
2019-03-12T13:53:14.513Z,94502.23
2019-03-12T13:55:47.100Z,94513.03
2019-03-12T13:58:20.014Z,94516.16
2019-03-12T14:00:54.506Z,94515.23
2019-03-12T14:03:29.958Z,94501.84
2019-03-12T14:06:03.434Z,94498.94
2019-03-12T14:08:36.623Z,94499.56
2019-03-12T14:11:09.610Z,94502.34
2019-03-12T14:13:42.942Z,94512.66
2019-03-12T14:16:17.280Z,94511.41
2019-03-12T14:18:50.255Z,94510.06
2019-03-12T14:21:23.440Z,94517.23
2019-03-12T14:24:02.992Z,94509.13
2019-03-12T14:26:36.326Z,94506.16
2019-03-12T14:29:09.224Z,94504.89
2019-03-12T14:31:41.996Z,94509.77
2019-03-12T14:34:15.016Z,94510.63
2019-03-12T14:36:48.227Z,94504.39
2019-03-12T14:39:22.238Z,94502.19
2019-03-12T14:41:55.400Z,94506.70
2019-03-12T14:44:28.436Z,94509.78
2019-03-12T14:47:01.517Z,94518.67
2019-03-12T14:49:34.731Z,94522.05
2019-03-12T14:52:27.184Z,94526.67
2019-03-12T14:55:00.740Z,94526.91
2019-03-12T14:57:33.832Z,94534.75
2019-03-12T15:00:16.157Z,94535.52
2019-03-12T15:02:50.522Z,94535.91
2019-03-12T15:05:23.840Z,94534.90
2019-03-12T15:07:57.042Z,94540.94
2019-03-12T15:10:30.097Z,94542.13
2019-03-12T15:13:03.424Z,94542.70
2019-03-12T15:15:36.473Z,94540.79
2019-03-12T15:18:10.223Z,94541.44
2019-03-12T15:20:46.981Z,94548.91
2019-03-12T15:23:20.206Z,94545.18
2019-03-12T15:25:53.490Z,94547.86
2019-03-12T15:28:26.511Z,94543.02
2019-03-12T15:31:02.716Z,94540.83
2019-03-12T15:33:35.972Z,94538.80
2019-03-12T15:36:09.059Z,94537.34
2019-03-12T15:38:44.893Z,94541.43
2019-03-12T15:41:17.997Z,94539.65
2019-03-12T15:43:51.477Z,94546.39
2019-03-12T15:46:25.197Z,94543.59
2019-03-12T15:48:58.423Z,94540.30
2019-03-12T15:51:31.303Z,94538.95
2019-03-12T15:54:04.543Z,94537.54
2019-03-12T15:56:37.470Z,94540.22
2019-03-12T15:59:10.937Z,94548.55
2019-03-12T16:01:44.143Z,94551.27
2019-03-12T16:04:17.178Z,94559.42
2019-03-12T16:07:00.579Z,94564.20
2019-03-12T16:09:25.216Z,94576.07
2019-03-12T16:11:58.166Z,94587.05
2019-03-12T16:14:31.520Z,94585.97
2019-03-12T16:17:04.441Z,94599.28
2019-03-12T16:19:37.544Z,94606.08
2019-03-12T16:22:10.895Z,94604.84
2019-03-12T16:24:44.214Z,94611.91
2019-03-12T16:27:17.163Z,94610.05
2019-03-12T16:29:51.194Z,94612.13
2019-03-12T16:32:24.474Z,94616.08
2019-03-12T16:34:57.556Z,94605.02
2019-03-12T16:37:31.237Z,94617.70
2019-03-12T16:40:04.126Z,94615.27
2019-03-12T16:42:37.127Z,94629.41
2019-03-12T16:45:10.985Z,94631.80
2019-03-12T16:47:43.478Z,94636.73
2019-03-12T16:50:16.502Z,94640.88
2019-03-12T16:52:49.599Z,94650.11
2019-03-12T16:55:22.681Z,94653.26
2019-03-12T16:57:55.502Z,94655.17
2019-03-12T17:00:28.905Z,94660.48
2019-03-12T17:03:02.256Z,94661.81
2019-03-12T17:05:35.544Z,94664.95
2019-03-12T17:08:09.374Z,94672.21
2019-03-12T17:10:54.738Z,94671.59
2019-03-12T17:13:17.110Z,94681.25
2019-03-12T17:15:54.634Z,94681.19
2019-03-12T17:18:27.267Z,94683.33
2019-03-12T17:21:02.769Z,94690.91
2019-03-12T17:23:37.585Z,94693.36
2019-03-12T17:26:10.748Z,94703.83
2019-03-12T17:28:43.679Z,94703.25
2019-03-12T17:31:16.640Z,94715.94
2019-03-12T17:33:49.811Z,94711.77
2019-03-12T17:36:23.370Z,94721.56
2019-03-12T17:38:56.297Z,94716.57
2019-03-12T17:41:30.043Z,94715.47
2019-03-12T17:44:03.585Z,94713.63
2019-03-12T17:46:37.347Z,94722.58
2019-03-12T17:49:12.643Z,94726.95
2019-03-12T17:51:45.758Z,94723.07
2019-03-12T17:54:19.109Z,94728.16
2019-03-12T17:56:55.873Z,94725.07
2019-03-12T17:59:28.965Z,94729.02
2019-03-12T18:02:02.230Z,94724.42
2019-03-12T18:04:35.504Z,94730.36
2019-03-12T18:07:09.022Z,94739.05
2019-03-12T18:09:42.141Z,94741.83
2019-03-12T18:12:15.613Z,94743.55
2019-03-12T18:14:49.276Z,94745.92
2019-03-12T18:17:22.609Z,94747.39
2019-03-12T18:19:55.873Z,94748.19
2019-03-12T18:22:29.802Z,94748.52
2019-03-12T18:25:03.583Z,94754.19
2019-03-12T18:27:37.238Z,94747.70
2019-03-12T18:30:14.111Z,94769.99
2019-03-12T18:32:47.614Z,94766.75
2019-03-12T18:35:21.312Z,94763.68
2019-03-12T18:37:56.886Z,94768.80
2019-03-12T18:40:30.396Z,94760.73
2019-03-12T18:43:03.883Z,94762.10
2019-03-12T18:45:37.100Z,94763.91
2019-03-12T18:48:12.175Z,94766.55
2019-03-12T18:50:45.965Z,94771.63
2019-03-12T18:53:22.297Z,94775.88
2019-03-12T18:56:14.854Z,94777.81
2019-03-12T18:58:49.309Z,94783.77
2019-03-12T19:01:57.430Z,94780.22
